Time;durP1;ratioP1;P1;durP2;ratioP2;P2;SDS_P1;SDS_P2;PMS_P1;PMS_P2;Temp;Humidity;BMP_temperature;BMP_pressure;BME280_temperature;BME280_humidity;BME280_pressure;Samples;Min_cycle;Max_cycle;Signal;HPM_P1;HPM_P2
2022/04/11 00:00:08;;;;;;;2.88;1.30;;;17.70;48.50;;;;;;5123386;27;45253;-79
2022/04/11 00:02:35;;;;;;;2.63;1.55;;;17.70;48.50;;;;;;5128438;27;45353;-79
2022/04/11 00:05:03;;;;;;;1.65;1.08;;;17.70;48.60;;;;;;5126492;27;45255;-79
2022/04/11 00:07:30;;;;;;;1.63;1.08;;;17.60;48.30;;;;;;5123812;27;45308;-79
2022/04/11 00:09:57;;;;;;;1.58;1.10;;;17.60;48.50;;;;;;5125724;27;45375;-79
2022/04/11 00:12:24;;;;;;;1.83;1.25;;;17.60;48.50;;;;;;5125466;27;47125;-79
2022/04/11 00:14:51;;;;;;;2.15;1.10;;;17.60;48.50;;;;;;5121037;27;45219;-79
2022/04/11 00:17:18;;;;;;;2.30;1.23;;;17.60;48.60;;;;;;5122714;27;45253;-79
2022/04/11 00:19:45;;;;;;;2.58;1.25;;;17.60;48.40;;;;;;5119489;27;45632;-79
2022/04/11 00:22:13;;;;;;;2.05;1.33;;;17.60;48.50;;;;;;5125746;27;47413;-79
2022/04/11 00:24:40;;;;;;;3.15;1.40;;;17.60;48.30;;;;;;5125453;27;45441;-79
2022/04/11 00:27:07;;;;;;;2.03;1.25;;;17.60;48.10;;;;;;5127469;27;45330;-78
2022/04/11 00:29:33;;;;;;;1.73;1.17;;;17.60;48.20;;;;;;5125568;27;45255;-78
2022/04/11 00:32:00;;;;;;;2.13;1.30;;;17.60;48.40;;;;;;5128525;27;46704;-78
2022/04/11 00:34:27;;;;;;;2.53;1.20;;;17.60;48.40;;;;;;5121095;27;45931;-79
2022/04/11 00:36:54;;;;;;;2.53;1.42;;;17.60;48.50;;;;;;5131895;27;45237;-79
2022/04/11 00:39:22;;;;;;;1.60;1.17;;;17.60;48.40;;;;;;5129836;27;45154;-78
2022/04/11 00:41:49;;;;;;;2.33;1.40;;;17.60;48.50;;;;;;5129703;27;46310;-79
2022/04/11 00:44:15;;;;;;;2.75;1.30;;;17.60;48.40;;;;;;5129927;27;45306;-78
2022/04/11 00:46:42;;;;;;;2.72;1.40;;;17.60;48.30;;;;;;5131890;27;45311;-79
2022/04/11 00:49:09;;;;;;;2.40;1.50;;;17.60;48.30;;;;;;5121312;27;45180;-79
2022/04/11 00:51:36;;;;;;;2.10;1.23;;;17.60;48.20;;;;;;5128227;27;45245;-79
2022/04/11 00:54:04;;;;;;;3.47;1.80;;;17.60;47.90;;;;;;5131637;27;45251;-79
2022/04/11 00:56:35;;;;;;;2.72;1.50;;;17.60;48.20;;;;;;5126837;27;45322;-79
2022/04/11 00:59:03;;;;;;;2.45;1.50;;;17.60;48.30;;;;;;5128292;27;45190;-79
2022/04/11 01:01:30;;;;;;;2.92;1.50;;;17.60;48.10;;;;;;5123782;27;47406;-79
2022/04/11 01:03:58;;;;;;;2.20;1.30;;;17.60;48.00;;;;;;5127665;27;45625;-79
2022/04/11 01:06:25;;;;;;;1.77;1.45;;;17.60;48.10;;;;;;5119227;27;45456;-79
2022/04/11 01:08:51;;;;;;;2.15;1.50;;;17.60;48.00;;;;;;5128985;27;45455;-79
2022/04/11 01:11:20;;;;;;;2.95;1.48;;;17.60;48.10;;;;;;5119613;27;47936;-79
2022/04/11 01:13:48;;;;;;;2.17;1.25;;;17.60;47.90;;;;;;5130680;27;45332;-79
2022/04/11 01:16:15;;;;;;;2.03;1.60;;;17.60;48.00;;;;;;5126754;27;45213;-79
2022/04/11 01:18:44;;;;;;;2.15;1.67;;;17.60;48.10;;;;;;5129380;27;45399;-79
2022/04/11 01:21:11;;;;;;;3.03;1.65;;;17.60;47.80;;;;;;5130042;27;46977;-79
2022/04/11 01:23:39;;;;;;;2.05;1.45;;;17.60;47.90;;;;;;5129226;27;45527;-78
2022/04/11 01:26:07;;;;;;;2.55;1.48;;;17.60;47.80;;;;;;5129520;27;45186;-79
2022/04/11 01:28:37;;;;;;;2.08;1.58;;;17.60;47.90;;;;;;5129425;27;45336;-79
2022/04/11 01:31:04;;;;;;;3.55;1.70;;;17.60;47.80;;;;;;5127250;27;47437;-79
2022/04/11 01:33:31;;;;;;;2.40;1.50;;;17.60;49.00;;;;;;5122157;27;45575;-78
2022/04/11 01:35:58;;;;;;;1.92;1.48;;;17.70;47.90;;;;;;5111269;27;45307;-79
2022/04/11 01:38:25;;;;;;;2.38;1.45;;;17.70;47.80;;;;;;5111833;27;45286;-79
2022/04/11 01:40:54;;;;;;;3.17;1.42;;;17.70;47.70;;;;;;5126120;27;45416;-79
2022/04/11 01:43:22;;;;;;;2.08;1.40;;;17.60;47.70;;;;;;5127786;27;45516;-79
2022/04/11 01:45:49;;;;;;;2.88;1.63;;;17.60;47.50;;;;;;5130648;27;45217;-79
2022/04/11 01:48:16;;;;;;;2.40;1.50;;;17.60;47.40;;;;;;5127482;27;45472;-79
2022/04/11 01:50:44;;;;;;;2.63;1.40;;;17.60;47.60;;;;;;5128284;27;47906;-79
2022/04/11 01:53:12;;;;;;;2.17;1.55;;;17.60;47.40;;;;;;5121331;27;45208;-79
2022/04/11 01:55:39;;;;;;;2.25;1.60;;;17.60;47.70;;;;;;5129867;27;45211;-79
2022/04/11 01:58:09;;;;;;;2.53;1.30;;;17.60;47.70;;;;;;5130075;27;45300;-79
2022/04/11 02:00:36;;;;;;;2.40;1.40;;;17.60;47.20;;;;;;5129302;27;46581;-79
2022/04/11 02:03:04;;;;;;;2.83;1.30;;;17.60;47.60;;;;;;5126830;27;45360;-79
2022/04/11 02:05:31;;;;;;;2.38;1.33;;;17.60;47.70;;;;;;5130166;27;45498;-79
2022/04/11 02:07:58;;;;;;;2.45;1.38;;;17.60;47.50;;;;;;5131320;27;45303;-79
2022/04/11 02:10:25;;;;;;;2.65;1.30;;;17.60;47.50;;;;;;5128010;27;47382;-78
2022/04/11 02:12:52;;;;;;;1.95;1.20;;;17.60;47.70;;;;;;5128793;27;45326;-79
2022/04/11 02:15:21;;;;;;;2.00;1.30;;;17.60;47.70;;;;;;5127546;27;45194;-79
2022/04/11 02:17:49;;;;;;;2.30;1.23;;;17.60;47.40;;;;;;5129880;27;45319;-79
2022/04/11 02:20:17;;;;;;;2.30;1.35;;;17.60;47.50;;;;;;5126246;27;47995;-79
2022/04/11 02:22:45;;;;;;;4.22;1.73;;;17.60;47.30;;;;;;5130427;27;45301;-79
2022/04/11 02:25:12;;;;;;;1.95;1.45;;;17.70;47.40;;;;;;5128372;27;45317;-79
2022/04/11 02:27:39;;;;;;;2.47;1.52;;;17.70;47.50;;;;;;5129128;27;45222;-79
2022/04/11 02:30:07;;;;;;;2.25;1.65;;;17.50;47.30;;;;;;5128653;27;46601;-79
2022/04/11 02:32:35;;;;;;;1.58;1.27;;;17.60;47.00;;;;;;5129660;27;45227;-79
2022/04/11 02:35:02;;;;;;;2.00;1.40;;;17.60;47.00;;;;;;5126238;27;45340;-79
2022/04/11 02:37:29;;;;;;;2.50;1.60;;;17.60;47.00;;;;;;5130109;27;45381;-79
2022/04/11 02:39:56;;;;;;;1.92;1.45;;;17.60;47.10;;;;;;5128744;27;46566;-79
2022/04/11 02:42:23;;;;;;;2.83;1.52;;;17.60;47.00;;;;;;5126532;27;45246;-79
2022/04/11 02:44:50;;;;;;;2.33;1.30;;;17.60;47.00;;;;;;5127729;27;45281;-79
2022/04/11 02:47:16;;;;;;;2.50;1.50;;;17.60;47.10;;;;;;5130204;27;45378;-79
2022/04/11 02:49:44;;;;;;;3.53;1.35;;;17.60;46.80;;;;;;5126339;27;46636;-79
2022/04/11 02:52:12;;;;;;;2.33;1.50;;;17.50;47.30;;;;;;5127060;27;45126;-79
2022/04/11 02:54:39;;;;;;;2.15;1.33;;;17.60;47.10;;;;;;5129163;27;45303;-79
2022/04/11 02:57:06;;;;;;;2.75;1.45;;;17.60;47.10;;;;;;5128161;27;45333;-79
2022/04/11 02:59:33;;;;;;;2.08;1.27;;;17.50;47.30;;;;;;5122963;27;47518;-79
2022/04/11 03:02:00;;;;;;;2.13;1.35;;;17.60;47.10;;;;;;5128919;27;45716;-79
2022/04/11 03:04:27;;;;;;;2.10;1.25;;;17.60;47.30;;;;;;5125918;27;45158;-79
2022/04/11 03:06:56;;;;;;;3.33;1.63;;;17.60;47.30;;;;;;5126689;27;45579;-79
2022/04/11 03:09:23;;;;;;;2.40;1.70;;;17.60;47.10;;;;;;5120109;27;47520;-79
2022/04/11 03:11:50;;;;;;;2.22;1.30;;;17.60;47.30;;;;;;5129627;27;45223;-79
2022/04/11 03:14:16;;;;;;;2.63;1.48;;;17.60;46.90;;;;;;5125386;27;45330;-79
2022/04/11 03:16:43;;;;;;;2.00;1.13;;;17.60;46.70;;;;;;5128983;27;45334;-79
2022/04/11 03:19:10;;;;;;;1.88;1.08;;;17.60;46.20;;;;;;5122027;27;45307;-79
2022/04/11 03:21:37;;;;;;;2.65;1.60;;;17.60;45.70;;;;;;5112518;27;45585;-79
2022/04/11 03:24:07;;;;;;;4.32;1.48;;;17.60;45.30;;;;;;5128902;27;45402;-79
2022/04/11 03:26:33;;;;;;;1.90;1.13;;;17.60;45.50;;;;;;5128970;27;45250;-79
2022/04/11 03:29:00;;;;;;;2.72;1.50;;;17.60;44.90;;;;;;5126358;27;46471;-79
2022/04/11 03:31:27;;;;;;;2.83;1.40;;;17.50;44.50;;;;;;5128492;27;45454;-79
2022/04/11 03:33:55;;;;;;;3.75;1.38;;;17.50;44.60;;;;;;5127190;27;45190;-79
2022/04/11 03:36:22;;;;;;;2.22;1.50;;;17.50;44.50;;;;;;5127092;27;45727;-79
2022/04/11 03:38:49;;;;;;;2.00;1.30;;;17.50;44.30;;;;;;5128024;27;47871;-79
2022/04/11 03:41:18;;;;;;;2.33;1.27;;;17.50;44.00;;;;;;5129250;27;45269;-79
2022/04/11 03:43:44;;;;;;;2.55;1.45;;;17.50;43.90;;;;;;5127431;27;45344;-79
2022/04/11 03:46:11;;;;;;;2.20;1.42;;;17.50;43.80;;;;;;5127291;27;45420;-79
2022/04/11 03:48:38;;;;;;;2.67;1.27;;;17.50;44.00;;;;;;5124247;27;46567;-79
2022/04/11 03:51:05;;;;;;;2.55;1.30;;;17.50;44.10;;;;;;5127549;27;45189;-79
2022/04/11 03:53:31;;;;;;;2.83;1.40;;;17.50;44.20;;;;;;5126228;27;45294;-79
2022/04/11 03:55:58;;;;;;;2.60;1.40;;;17.50;44.40;;;;;;5126587;27;45376;-79
2022/04/11 03:58:26;;;;;;;3.28;1.30;;;17.50;44.30;;;;;;5127192;27;47648;-80
2022/04/11 04:00:53;;;;;;;1.83;1.00;;;17.50;45.10;;;;;;5125713;27;46317;-79
2022/04/11 04:03:20;;;;;;;2.65;1.27;;;17.50;45.70;;;;;;5107579;27;45183;-79
2022/04/11 04:05:47;;;;;;;3.60;1.10;;;17.60;45.30;;;;;;5128832;27;45233;-79
2022/04/11 04:08:17;;;;;;;2.97;1.23;;;17.50;45.00;;;;;;5120125;27;46425;-79
2022/04/11 04:10:44;;;;;;;2.47;1.30;;;17.50;44.80;;;;;;5122847;27;45352;-79
2022/04/11 04:13:10;;;;;;;2.65;1.40;;;17.50;44.50;;;;;;5128866;27;45427;-79
2022/04/11 04:15:39;;;;;;;2.13;1.33;;;17.50;44.20;;;;;;5122620;27;45264;-79
2022/04/11 04:18:06;;;;;;;4.30;1.50;;;17.50;44.00;;;;;;5124388;27;47430;-80
2022/04/11 04:20:33;;;;;;;2.28;1.20;;;17.50;43.40;;;;;;5128208;27;45210;-79
2022/04/11 04:22:59;;;;;;;2.65;1.45;;;17.40;43.60;;;;;;5124720;27;45387;-79
2022/04/11 04:25:26;;;;;;;2.55;1.30;;;17.40;43.60;;;;;;5118687;27;45338;-80
2022/04/11 04:27:53;;;;;;;2.38;1.30;;;17.40;43.30;;;;;;5125804;27;45469;-79
2022/04/11 04:30:20;;;;;;;2.10;1.27;;;17.40;43.20;;;;;;5119974;27;45306;-79
2022/04/11 04:32:48;;;;;;;1.90;1.20;;;17.40;42.90;;;;;;5127513;27;45299;-79
2022/04/11 04:35:15;;;;;;;3.13;0.98;;;17.40;42.30;;;;;;5125329;27;45230;-79
2022/04/11 04:37:42;;;;;;;3.25;1.45;;;17.40;42.30;;;;;;5124561;27;46594;-79
2022/04/11 04:40:10;;;;;;;2.05;1.08;;;17.40;42.80;;;;;;5126796;27;45291;-79
2022/04/11 04:42:36;;;;;;;1.55;1.23;;;17.40;42.80;;;;;;5127825;27;45500;-79
2022/04/11 04:45:04;;;;;;;3.30;1.45;;;17.40;43.00;;;;;;5126848;27;45383;-79
2022/04/11 04:47:31;;;;;;;1.95;1.17;;;17.50;43.20;;;;;;5122103;27;45259;-79
2022/04/11 04:49:59;;;;;;;1.85;1.05;;;17.50;43.50;;;;;;5117740;27;46133;-79
2022/04/11 04:52:26;;;;;;;1.88;1.27;;;17.50;43.30;;;;;;5114710;27;45887;-79
2022/04/11 04:54:52;;;;;;;2.45;1.20;;;17.50;43.60;;;;;;5118004;27;45392;-79
2022/04/11 04:57:19;;;;;;;3.00;1.33;;;17.50;43.30;;;;;;5123518;27;48122;-79
2022/04/11 04:59:46;;;;;;;2.95;1.45;;;17.40;43.40;;;;;;5110848;27;45390;-78
2022/04/11 05:02:13;;;;;;;3.38;1.40;;;17.40;43.00;;;;;;5125320;27;45276;-78
2022/04/11 05:04:40;;;;;;;1.33;1.10;;;17.40;42.90;;;;;;5122347;27;45139;-78
2022/04/11 05:07:08;;;;;;;1.75;1.40;;;17.40;42.20;;;;;;5120827;27;45365;-79
2022/04/11 05:09:35;;;;;;;2.22;1.10;;;17.30;41.90;;;;;;5121965;27;45205;-80
2022/04/11 05:12:01;;;;;;;3.35;1.40;;;17.30;41.90;;;;;;5128038;27;45284;-79
2022/04/11 05:14:28;;;;;;;3.08;1.60;;;17.30;41.90;;;;;;5126722;27;45232;-79
2022/04/11 05:16:55;;;;;;;3.25;1.48;;;17.30;41.80;;;;;;5123036;27;45332;-79
2022/04/11 05:19:22;;;;;;;1.95;1.27;;;17.30;41.80;;;;;;5122581;27;45400;-80
2022/04/11 05:21:49;;;;;;;1.20;1.00;;;17.30;41.40;;;;;;5130411;27;45700;-80
2022/04/11 05:24:17;;;;;;;2.40;1.33;;;17.30;43.30;;;;;;5131099;27;45464;-78
2022/04/11 05:26:43;;;;;;;3.78;1.50;;;17.30;45.00;;;;;;5130995;27;45371;-78
2022/04/11 05:29:10;;;;;;;2.25;1.33;;;17.30;44.10;;;;;;5126287;27;45232;-78
2022/04/11 05:31:37;;;;;;;2.10;1.25;;;17.30;43.20;;;;;;5130641;27;45512;-78
2022/04/11 05:34:05;;;;;;;2.58;1.48;;;17.30;42.40;;;;;;5125812;27;45375;-78
2022/04/11 05:36:32;;;;;;;3.08;1.10;;;17.30;41.40;;;;;;5130977;27;46375;-78
2022/04/11 05:38:59;;;;;;;2.78;1.25;;;17.30;42.70;;;;;;5126522;27;45313;-78
2022/04/11 05:41:27;;;;;;;2.08;1.30;;;17.30;42.20;;;;;;5125088;27;45360;-78
2022/04/11 05:43:54;;;;;;;3.38;1.15;;;17.30;42.70;;;;;;5120656;27;45362;-78
2022/04/11 05:46:21;;;;;;;2.55;1.25;;;17.30;42.70;;;;;;5125914;27;45562;-78
2022/04/11 05:48:47;;;;;;;2.00;1.17;;;17.30;42.60;;;;;;5117606;27;45396;-78
2022/04/11 05:51:14;;;;;;;2.47;1.20;;;17.30;42.50;;;;;;5123746;27;45307;-78
2022/04/11 05:53:41;;;;;;;2.30;1.15;;;17.30;41.40;;;;;;5129227;27;45314;-78
2022/04/11 05:56:09;;;;;;;1.83;1.15;;;17.30;41.30;;;;;;5128478;27;47317;-78
2022/04/11 05:58:37;;;;;;;3.10;1.20;;;17.30;42.40;;;;;;5128924;27;45508;-78
2022/04/11 06:01:04;;;;;;;1.88;1.23;;;17.30;42.60;;;;;;5124087;27;45177;-78
2022/04/11 06:03:30;;;;;;;1.10;1.00;;;17.30;43.00;;;;;;5126371;27;45522;-78
2022/04/11 06:05:57;;;;;;;2.08;1.40;;;17.30;43.30;;;;;;5123193;27;47133;-79
2022/04/11 06:08:24;;;;;;;1.50;1.10;;;17.30;43.60;;;;;;5121639;27;45288;-79
2022/04/11 06:10:51;;;;;;;1.92;1.10;;;17.40;43.70;;;;;;5122951;27;45479;-79
2022/04/11 06:13:17;;;;;;;2.03;1.20;;;17.40;43.10;;;;;;5124084;27;45492;-79
2022/04/11 06:15:46;;;;;;;3.38;1.42;;;17.40;42.40;;;;;;5120556;27;47473;-79
2022/04/11 06:18:13;;;;;;;2.17;1.20;;;17.50;41.90;;;;;;5121711;27;45436;-79
2022/04/11 06:20:40;;;;;;;2.67;1.25;;;17.50;41.80;;;;;;5127781;27;45250;-79
2022/04/11 06:23:07;;;;;;;1.55;1.10;;;17.50;41.50;;;;;;5122471;27;45333;-79
2022/04/11 06:25:34;;;;;;;2.22;1.38;;;17.50;42.40;;;;;;5126082;27;45263;-79
2022/04/11 06:28:01;;;;;;;1.58;1.05;;;17.50;42.40;;;;;;5124734;27;45370;-79
2022/04/11 06:30:27;;;;;;;1.30;1.00;;;17.60;42.30;;;;;;5127199;27;45278;-79
2022/04/11 06:32:56;;;;;;;2.00;1.20;;;17.60;42.20;;;;;;5124690;27;45266;-79
2022/04/11 06:35:22;;;;;;;1.52;0.95;;;17.40;42.10;;;;;;5128684;27;45314;-79
2022/04/11 06:37:49;;;;;;;1.48;1.10;;;17.60;42.00;;;;;;5125498;27;45273;-79
2022/04/11 06:40:17;;;;;;;2.33;1.50;;;17.50;42.00;;;;;;5127484;27;45284;-79
2022/04/11 06:42:43;;;;;;;2.55;1.20;;;17.60;41.90;;;;;;5122008;27;45444;-79
2022/04/11 06:45:10;;;;;;;2.05;1.20;;;17.60;41.60;;;;;;5125898;27;48026;-79
2022/04/11 06:47:37;;;;;;;2.03;1.00;;;17.50;41.70;;;;;;5121406;27;45715;-79
2022/04/11 06:50:06;;;;;;;2.05;1.20;;;17.50;41.80;;;;;;5126126;27;45250;-79
2022/04/11 06:52:33;;;;;;;2.67;1.40;;;17.50;42.00;;;;;;5128111;27;45550;-79
2022/04/11 06:55:00;;;;;;;2.00;1.20;;;17.50;41.80;;;;;;5128626;27;45338;-79
2022/04/11 06:57:28;;;;;;;2.03;1.10;;;17.50;41.80;;;;;;5127802;27;45404;-79
2022/04/11 06:59:55;;;;;;;1.55;1.05;;;17.50;42.00;;;;;;5122872;27;45553;-79
2022/04/11 07:02:21;;;;;;;3.00;1.42;;;17.50;42.00;;;;;;5127262;27;45332;-79
2022/04/11 07:04:48;;;;;;;2.42;1.10;;;17.50;41.90;;;;;;5126958;27;45218;-79
2022/04/11 07:07:16;;;;;;;2.63;1.38;;;17.50;41.80;;;;;;5124141;27;45282;-79
2022/04/11 07:09:43;;;;;;;3.78;1.17;;;17.50;41.80;;;;;;5127576;27;45290;-79
2022/04/11 07:12:10;;;;;;;2.25;1.30;;;17.50;42.00;;;;;;5124108;27;45414;-79
2022/04/11 07:14:37;;;;;;;1.50;1.02;;;17.50;41.90;;;;;;5128087;27;45249;-79
2022/04/11 07:17:04;;;;;;;1.98;1.08;;;17.50;41.90;;;;;;5128874;27;45139;-79
2022/04/11 07:19:31;;;;;;;2.55;1.10;;;17.60;42.00;;;;;;5119486;27;46352;-79
2022/04/11 07:21:57;;;;;;;1.88;1.08;;;17.60;41.90;;;;;;5126043;27;45416;-79
2022/04/11 07:24:26;;;;;;;2.85;1.50;;;17.60;41.90;;;;;;5123858;27;46218;-79
2022/04/11 07:26:52;;;;;;;2.55;1.10;;;17.60;42.10;;;;;;5125544;27;45209;-79
2022/04/11 07:29:19;;;;;;;2.08;0.90;;;17.60;42.30;;;;;;5119620;27;45141;-79
2022/04/11 07:31:46;;;;;;;1.27;0.98;;;17.60;42.00;;;;;;5127130;27;45193;-79
2022/04/11 07:34:13;;;;;;;1.92;0.95;;;17.60;42.20;;;;;;5126539;27;45237;-79
2022/04/11 07:36:39;;;;;;;1.92;1.00;;;17.60;42.20;;;;;;5121526;27;45511;-79
2022/04/11 07:39:06;;;;;;;1.02;0.88;;;17.60;42.50;;;;;;5126679;27;45317;-79
2022/04/11 07:41:35;;;;;;;1.77;1.10;;;17.60;42.40;;;;;;5126053;27;45375;-79
2022/04/11 07:44:03;;;;;;;3.97;1.10;;;17.60;42.20;;;;;;5120240;27;45452;-79
2022/04/11 07:46:30;;;;;;;1.13;0.75;;;17.50;42.20;;;;;;5125479;27;45237;-78
2022/04/11 07:48:56;;;;;;;2.08;1.20;;;17.50;42.30;;;;;;5120966;27;45124;-78
2022/04/11 07:51:23;;;;;;;1.98;0.93;;;17.50;42.40;;;;;;5126814;27;45258;-78
2022/04/11 07:53:50;;;;;;;3.75;1.00;;;17.50;42.50;;;;;;5128813;27;47427;-78
2022/04/11 07:56:17;;;;;;;1.40;0.90;;;17.50;42.50;;;;;;5126637;27;45284;-79
2022/04/11 07:58:45;;;;;;;1.77;1.05;;;17.50;42.60;;;;;;5125987;27;45385;-78
2022/04/11 08:01:16;;;;;;;1.63;1.02;;;17.50;42.70;;;;;;5125675;27;45218;-78
2022/04/11 08:03:43;;;;;;;2.05;1.08;;;17.50;42.70;;;;;;5122604;27;45430;-78
2022/04/11 08:06:10;;;;;;;2.58;1.20;;;17.60;42.60;;;;;;5126537;27;45163;-79
2022/04/11 08:08:37;;;;;;;2.03;1.15;;;17.60;42.60;;;;;;5127654;27;45395;-79
2022/04/11 08:11:04;;;;;;;2.10;0.77;;;17.60;42.60;;;;;;5127258;27;45338;-79
2022/04/11 08:13:31;;;;;;;2.88;1.10;;;17.60;42.50;;;;;;5127743;27;45288;-79
2022/04/11 08:15:59;;;;;;;2.40;1.15;;;17.60;42.70;;;;;;5127533;27;45276;-79
2022/04/11 08:18:26;;;;;;;2.33;1.42;;;17.60;43.80;;;;;;5122768;27;45280;-79
2022/04/11 08:20:53;;;;;;;2.90;1.05;;;17.70;42.70;;;;;;5127863;27;45312;-79
2022/04/11 08:23:20;;;;;;;1.75;1.25;;;17.70;42.70;;;;;;5119875;27;45293;-79
2022/04/11 08:25:47;;;;;;;1.23;0.80;;;17.60;42.70;;;;;;5121393;27;45236;-79
2022/04/11 08:28:15;;;;;;;2.15;1.08;;;17.60;42.70;;;;;;5126642;27;45144;-79
2022/04/11 08:30:42;;;;;;;1.52;1.02;;;17.60;42.90;;;;;;5128176;27;45212;-79
2022/04/11 08:33:11;;;;;;;2.20;1.08;;;17.60;42.90;;;;;;5127443;27;46606;-79
2022/04/11 08:35:38;;;;;;;2.20;1.10;;;17.60;42.90;;;;;;5126051;27;45178;-79
2022/04/11 08:38:05;;;;;;;1.88;0.90;;;17.60;42.90;;;;;;5119064;27;46968;-79
2022/04/11 08:40:32;;;;;;;1.67;0.82;;;17.60;43.00;;;;;;5125045;27;45493;-78
2022/04/11 08:43:00;;;;;;;2.78;0.93;;;17.50;42.90;;;;;;5121581;27;45384;-79
2022/04/11 08:45:29;;;;;;;2.30;0.95;;;17.60;42.80;;;;;;5121777;27;45794;-79
2022/04/11 08:47:56;;;;;;;2.15;0.80;;;17.60;43.00;;;;;;5127430;27;45168;-79
2022/04/11 08:50:25;;;;;;;1.75;0.98;;;17.60;43.70;;;;;;5127898;27;45515;-79
2022/04/11 08:52:54;;;;;;;1.67;1.00;;;17.60;44.00;;;;;;5124522;27;46299;-79
2022/04/11 08:55:21;;;;;;;1.30;0.80;;;17.60;44.30;;;;;;5123186;27;45233;-78
2022/04/11 08:57:49;;;;;;;2.00;0.90;;;17.70;44.40;;;;;;5130526;27;45240;-78
2022/04/11 09:00:20;;;;;;;1.17;0.60;;;17.70;44.40;;;;;;5126684;27;45124;-78
2022/04/11 09:02:47;;;;;;;1.80;0.80;;;17.70;44.40;;;;;;5119205;27;47249;-79
2022/04/11 09:05:21;;;;;;;1.80;0.80;;;17.70;44.40;;;;;;5128719;27;45259;-79
2022/04/11 09:07:51;;;;;;;2.85;0.80;;;17.70;44.40;;;;;;5127324;27;45453;-79
2022/04/11 09:10:19;;;;;;;1.40;0.90;;;17.70;44.70;;;;;;5130417;27;45550;-78
2022/04/11 09:12:48;;;;;;;1.60;0.80;;;17.70;44.60;;;;;;5127917;27;47428;-78
2022/04/11 09:15:15;;;;;;;1.48;0.95;;;17.70;44.70;;;;;;5130479;27;45174;-79
2022/04/11 09:17:42;;;;;;;1.60;0.75;;;17.70;44.80;;;;;;5129299;27;45144;-79
2022/04/11 09:20:11;;;;;;;1.35;0.80;;;17.70;44.80;;;;;;5129093;27;45184;-79
2022/04/11 09:22:38;;;;;;;1.45;0.80;;;17.70;45.00;;;;;;5131428;27;45455;-79
2022/04/11 09:25:08;;;;;;;1.25;0.80;;;17.70;45.00;;;;;;5130506;27;45391;-79
2022/04/11 09:27:35;;;;;;;1.75;0.80;;;17.70;45.00;;;;;;5128560;27;45219;-79
2022/04/11 09:30:02;;;;;;;0.75;0.73;;;17.70;45.10;;;;;;5122426;27;46209;-79
2022/04/11 09:32:28;;;;;;;1.42;0.68;;;17.70;45.00;;;;;;5129497;27;45585;-78
2022/04/11 09:34:55;;;;;;;1.05;0.70;;;17.70;46.30;;;;;;5127607;27;45268;-78
2022/04/11 09:37:22;;;;;;;2.20;0.80;;;17.70;45.10;;;;;;5124041;27;45350;-78
2022/04/11 09:39:56;;;;;;;2.25;0.98;;;17.70;45.10;;;;;;5127217;27;46552;-78
2022/04/11 09:42:33;;;;;;;1.63;0.77;;;17.70;45.10;;;;;;5120708;27;47307;-79
2022/04/11 09:45:01;;;;;;;0.63;0.50;;;17.70;45.10;;;;;;5129241;27;45588;-79
2022/04/11 09:47:28;;;;;;;0.88;0.68;;;17.70;45.10;;;;;;5127376;27;45236;-79
2022/04/11 09:49:55;;;;;;;0.75;0.60;;;17.70;45.00;;;;;;5121482;27;45353;-79
2022/04/11 09:52:29;;;;;;;1.13;0.60;;;17.70;45.10;;;;;;5129112;27;46530;-79
2022/04/11 09:54:58;;;;;;;1.17;0.80;;;17.80;44.90;;;;;;5130230;27;45173;-78
2022/04/11 09:57:31;;;;;;;0.95;0.60;;;17.80;44.80;;;;;;5123632;27;45245;-79
2022/04/11 10:00:01;;;;;;;1.95;0.85;;;17.80;44.70;;;;;;5120032;27;45536;-78
2022/04/11 10:02:28;;;;;;;3.47;1.00;;;17.80;44.70;;;;;;5122166;27;47942;-78
2022/04/11 10:04:56;;;;;;;1.10;0.60;;;17.80;44.60;;;;;;5127292;27;45217;-78
2022/04/11 10:07:24;;;;;;;1.02;0.63;;;17.80;44.90;;;;;;5123222;27;45468;-78
2022/04/11 10:09:51;;;;;;;1.50;0.70;;;17.70;44.90;;;;;;5125025;27;45567;-78
2022/04/11 10:12:18;;;;;;;1.88;0.80;;;17.70;44.90;;;;;;5129199;27;45998;-78
2022/04/11 10:14:47;;;;;;;0.93;0.52;;;17.70;44.70;;;;;;5126007;27;45378;-78
2022/04/11 10:17:16;;;;;;;1.65;0.70;;;17.70;44.50;;;;;;5126400;27;45399;-79
2022/04/11 10:19:47;;;;;;;1.02;0.52;;;17.70;44.40;;;;;;5119266;27;45790;-78
2022/04/11 10:22:18;;;;;;;0.77;0.50;;;17.70;44.30;;;;;;5127102;27;45345;-78
2022/04/11 10:24:56;;;;;;;1.52;0.95;;;17.70;44.30;;;;;;5124628;27;45638;-78
2022/04/11 10:27:25;;;;;;;1.60;0.60;;;17.70;44.00;;;;;;5118611;27;45312;-78
2022/04/11 10:29:53;;;;;;;1.35;0.45;;;17.70;44.00;;;;;;5123583;27;45275;-78
2022/04/11 10:32:23;;;;;;;0.88;0.60;;;17.70;44.50;;;;;;5123724;27;46004;-79
2022/04/11 10:34:53;;;;;;;1.85;0.60;;;17.70;44.40;;;;;;5126476;27;45256;-78
2022/04/11 10:37:22;;;;;;;1.60;0.70;;;17.80;44.30;;;;;;5119569;27;45203;-78
2022/04/11 10:39:49;;;;;;;1.30;0.70;;;17.60;44.30;;;;;;5120972;27;45534;-78
2022/04/11 10:42:21;;;;;;;2.03;0.95;;;17.80;44.40;;;;;;5126227;27;47876;-78
2022/04/11 10:44:50;;;;;;;1.15;0.77;;;17.80;44.30;;;;;;5118705;27;46614;-78
2022/04/11 10:47:26;;;;;;;2.13;0.70;;;17.80;44.30;;;;;;5118676;27;45625;-78
2022/04/11 10:50:36;;;;;;;1.48;0.73;;;17.80;44.40;;;;;;5118317;27;45424;-78
2022/04/11 10:53:25;;;;;;;1.02;0.60;;;17.80;44.40;;;;;;5119189;27;45520;-78
2022/04/11 10:55:57;;;;;;;0.60;0.52;;;17.80;44.50;;;;;;5122353;27;45436;-78
2022/04/11 10:58:39;;;;;;;1.17;0.65;;;17.70;43.80;;;;;;5126222;27;45288;-78
2022/04/11 11:01:05;;;;;;;2.03;0.55;;;17.70;44.20;;;;;;5125221;27;45183;-78
2022/04/11 11:03:34;;;;;;;0.85;0.50;;;17.70;44.40;;;;;;5120572;27;46273;-79
2022/04/11 11:06:19;;;;;;;1.17;0.77;;;17.70;44.40;;;;;;5125213;27;45364;-78
2022/04/11 11:08:46;;;;;;;1.50;0.70;;;17.70;44.70;;;;;;5125548;27;45188;-79
2022/04/11 11:11:21;;;;;;;1.10;0.60;;;17.70;44.60;;;;;;5124245;27;45516;-79
2022/04/11 11:13:49;;;;;;;1.00;0.50;;;17.70;44.30;;;;;;5127629;27;47416;-79
2022/04/11 11:16:41;;;;;;;0.95;0.70;;;17.70;44.60;;;;;;5126132;27;45396;-78
2022/04/11 11:19:13;;;;;;;0.93;0.70;;;17.70;44.40;;;;;;5119913;27;45394;-79
2022/04/11 11:22:03;;;;;;;1.55;0.73;;;17.70;44.50;;;;;;5115742;27;45258;-79
2022/04/11 11:24:30;;;;;;;1.10;0.80;;;17.70;44.90;;;;;;5121762;27;46707;-79
2022/04/11 11:27:00;;;;;;;0.75;0.60;;;17.80;44.80;;;;;;5120908;27;45496;-80
2022/04/11 11:29:28;;;;;;;1.70;0.65;;;17.80;44.60;;;;;;5118779;27;45406;-79
2022/04/11 11:31:57;;;;;;;0.60;0.50;;;17.80;44.70;;;;;;5126689;27;45296;-78
2022/04/11 11:34:28;;;;;;;1.48;0.60;;;17.80;44.60;;;;;;5126276;27;45500;-79
2022/04/11 11:36:59;;;;;;;1.15;0.50;;;17.80;44.40;;;;;;5125171;27;45258;-79
2022/04/11 11:39:28;;;;;;;1.27;0.55;;;17.80;44.50;;;;;;5127107;27;45332;-79
2022/04/11 11:42:03;;;;;;;40.25;3.58;;;17.80;44.60;;;;;;5123417;27;45407;-78
2022/04/11 11:44:31;;;;;;;13.90;1.73;;;17.80;45.80;;;;;;5125066;27;46344;-82
2022/04/11 11:47:00;;;;;;;9.02;1.23;;;17.90;46.40;;;;;;5113547;27;45231;-78
2022/04/11 11:49:37;;;;;;;1.75;0.95;;;17.90;47.80;;;;;;5124371;27;45300;-79
2022/04/11 11:52:06;;;;;;;7.85;0.77;;;17.90;46.10;;;;;;5123630;27;45393;-79
2022/04/11 11:54:34;;;;;;;4.32;1.02;;;17.80;46.00;;;;;;5126244;27;46441;-79
2022/04/11 11:57:01;;;;;;;4.05;1.23;;;17.80;45.80;;;;;;5117581;27;45356;-79
2022/04/11 11:59:28;;;;;;;3.90;0.80;;;17.80;45.90;;;;;;5125776;27;45235;-79
2022/04/11 12:04:37;;;;;;;4.72;1.00;;;17.80;46.00;;;;;;5124954;27;45346;-79
2022/04/11 12:07:04;;;;;;;4.00;0.85;;;17.80;45.60;;;;;;5124434;27;45661;-78
2022/04/11 12:09:36;;;;;;;2.13;1.02;;;17.70;45.40;;;;;;5127451;27;45281;-78
2022/04/11 12:12:05;;;;;;;5.13;1.13;;;17.80;45.50;;;;;;5121039;27;45197;-78
2022/04/11 12:14:52;;;;;;;1.98;0.80;;;17.70;45.50;;;;;;5121393;27;47068;-78
2022/04/11 12:17:18;;;;;;;3.90;1.00;;;17.80;45.20;;;;;;5127490;27;45137;-79
2022/04/11 12:19:47;;;;;;;4.00;0.70;;;17.80;44.90;;;;;;5123610;27;45650;-79
2022/04/11 12:22:16;;;;;;;4.38;0.80;;;17.80;44.90;;;;;;5121893;27;45385;-79
2022/04/11 12:24:43;;;;;;;2.47;0.50;;;17.80;44.90;;;;;;5129813;27;45278;-78
2022/04/11 12:27:13;;;;;;;1.10;0.55;;;17.80;44.60;;;;;;5128577;27;45318;-79
2022/04/11 12:29:42;;;;;;;1.65;0.55;;;17.80;44.60;;;;;;5128298;27;45280;-79
2022/04/11 12:32:14;;;;;;;3.20;0.70;;;17.80;44.60;;;;;;5112234;27;45420;-79
2022/04/11 12:34:43;;;;;;;2.33;0.80;;;17.80;44.00;;;;;;5123252;27;47391;-79
2022/04/11 12:37:13;;;;;;;1.05;0.70;;;17.80;44.00;;;;;;5122752;27;45231;-79
2022/04/11 12:39:53;;;;;;;1.00;0.57;;;17.80;43.90;;;;;;5127716;27;45217;-79
2022/04/11 12:42:20;;;;;;;0.82;0.60;;;17.80;44.00;;;;;;5119463;27;45118;-79
2022/04/11 12:44:47;;;;;;;1.35;0.88;;;17.80;44.00;;;;;;5125443;27;46207;-79
2022/04/11 12:47:14;;;;;;;2.65;0.73;;;17.80;44.10;;;;;;5127822;27;45289;-79
2022/04/11 12:49:45;;;;;;;2.30;0.82;;;17.80;44.20;;;;;;5125421;27;45158;-79
2022/04/11 12:52:14;;;;;;;2.05;0.75;;;17.80;44.00;;;;;;5124200;27;45192;-79
2022/04/11 12:54:43;;;;;;;2.03;0.90;;;17.80;44.10;;;;;;5124313;27;47537;-79